createdAt,value
2022-07-25T00:00:09.273Z,4.90
2022-07-25T00:02:37.702Z,4.68
2022-07-25T00:05:07.462Z,4.30
2022-07-25T00:07:35.916Z,4.57
2022-07-25T00:10:04.880Z,4.60
2022-07-25T00:12:34.717Z,4.72
2022-07-25T00:15:03.164Z,4.70
2022-07-25T00:17:31.578Z,4.47
2022-07-25T00:20:00.067Z,4.65
2022-07-25T00:22:28.471Z,4.30
2022-07-25T00:24:57.000Z,4.70
2022-07-25T00:27:25.401Z,5.15
2022-07-25T00:29:55.234Z,4.47
2022-07-25T00:32:23.619Z,4.30
2022-07-25T00:34:51.999Z,4.40
2022-07-25T00:37:20.453Z,4.80
2022-07-25T00:39:48.847Z,5.00
2022-07-25T00:42:17.218Z,4.03
2022-07-25T00:44:45.966Z,4.70
2022-07-25T00:47:15.766Z,4.60
2022-07-25T00:49:44.140Z,4.45
2022-07-25T00:52:12.980Z,4.82
2022-07-25T00:54:41.575Z,4.43
2022-07-25T00:57:09.911Z,4.63
2022-07-25T00:59:38.319Z,5.00
2022-07-25T01:02:06.736Z,4.82
2022-07-25T01:04:36.623Z,4.40
2022-07-25T01:07:05.069Z,4.38
2022-07-25T01:09:34.075Z,4.60
2022-07-25T01:12:02.544Z,4.40
2022-07-25T01:14:30.843Z,4.80
2022-07-25T01:16:59.240Z,4.57
2022-07-25T01:19:27.710Z,4.70
2022-07-25T01:21:57.543Z,4.72
2022-07-25T01:24:25.978Z,4.28
2022-07-25T01:26:54.412Z,4.65
2022-07-25T01:29:22.759Z,4.80
2022-07-25T01:31:51.142Z,4.90
2022-07-25T01:34:19.615Z,4.53
2022-07-25T01:36:48.016Z,4.47
2022-07-25T01:39:17.999Z,4.72
2022-07-25T01:41:46.373Z,4.97
2022-07-25T01:44:14.724Z,5.13
2022-07-25T01:46:43.152Z,4.75
2022-07-25T01:49:11.750Z,4.80
2022-07-25T01:51:40.216Z,4.68
2022-07-25T01:54:10.302Z,4.97
2022-07-25T01:56:45.926Z,4.45
2022-07-25T01:59:16.889Z,4.25
2022-07-25T02:01:45.480Z,4.45
2022-07-25T02:04:14.012Z,4.30
2022-07-25T02:06:42.682Z,4.53
2022-07-25T02:09:11.124Z,4.55
2022-07-25T02:11:41.157Z,4.35
2022-07-25T02:14:09.936Z,4.63
2022-07-25T02:16:38.489Z,4.65
2022-07-25T02:19:07.048Z,4.68
2022-07-25T02:21:35.805Z,4.50
2022-07-25T02:24:04.889Z,4.20
2022-07-25T02:26:33.441Z,4.65
2022-07-25T02:29:03.327Z,4.88
2022-07-25T02:31:31.768Z,4.47
2022-07-25T02:34:00.145Z,4.80
2022-07-25T02:36:28.572Z,4.95
2022-07-25T02:38:56.941Z,4.80
2022-07-25T02:41:25.545Z,4.22
2022-07-25T02:43:54.045Z,4.75
2022-07-25T02:46:25.004Z,4.97
2022-07-25T02:48:53.508Z,4.70
2022-07-25T02:51:21.960Z,4.57
2022-07-25T02:53:58.876Z,4.80
2022-07-25T02:56:30.054Z,5.07
2022-07-25T02:58:58.867Z,5.05
2022-07-25T03:01:28.688Z,4.82
2022-07-25T03:03:57.605Z,4.78
2022-07-25T03:06:26.089Z,4.80
2022-07-25T03:08:54.638Z,4.93
2022-07-25T03:11:23.078Z,4.43
2022-07-25T03:13:51.515Z,4.80
2022-07-25T03:16:19.973Z,5.20
2022-07-25T03:18:49.797Z,4.82
2022-07-25T03:21:18.217Z,5.20
2022-07-25T03:23:52.271Z,5.20
2022-07-25T03:26:21.369Z,4.82
2022-07-25T03:28:49.812Z,4.88
2022-07-25T03:31:18.261Z,4.68
2022-07-25T03:33:47.199Z,4.68
2022-07-25T03:36:17.027Z,5.28
2022-07-25T03:38:45.440Z,5.20
2022-07-25T03:41:14.171Z,4.63
2022-07-25T03:43:42.470Z,4.75
2022-07-25T03:46:10.918Z,4.60
2022-07-25T03:48:39.468Z,4.82
2022-07-25T03:51:08.590Z,4.97
2022-07-25T03:56:34.127Z,4.65
2022-07-25T03:59:02.532Z,5.45
2022-07-25T04:01:30.936Z,5.10
2022-07-25T04:04:00.645Z,5.43
2022-07-25T04:06:29.725Z,5.13
2022-07-25T04:08:58.361Z,4.60
2022-07-25T04:11:28.198Z,5.35
2022-07-25T04:13:58.143Z,5.07
2022-07-25T04:16:28.032Z,5.20
2022-07-25T04:18:57.432Z,5.10
2022-07-25T04:21:26.493Z,4.82
2022-07-25T04:23:55.025Z,5.38
2022-07-25T04:26:23.513Z,4.78
2022-07-25T04:28:52.194Z,4.82
2022-07-25T04:31:21.965Z,5.40
2022-07-25T04:33:50.362Z,5.20
2022-07-25T04:36:18.918Z,5.32
2022-07-25T04:38:47.349Z,5.10
2022-07-25T04:41:15.757Z,4.85
2022-07-25T04:43:48.584Z,4.90
2022-07-25T04:46:21.930Z,5.28
2022-07-25T04:48:51.443Z,5.00
2022-07-25T04:51:20.274Z,4.97
2022-07-25T04:53:48.778Z,6.65
2022-07-25T04:56:17.212Z,6.22
2022-07-25T04:58:45.600Z,5.85
2022-07-25T05:01:14.112Z,5.00
2022-07-25T05:03:49.845Z,5.57
2022-07-25T05:06:19.877Z,5.38
2022-07-25T05:08:48.514Z,5.80
2022-07-25T05:11:16.900Z,5.28
2022-07-25T05:13:45.279Z,5.78
2022-07-25T05:16:13.720Z,5.28
2022-07-25T05:18:43.555Z,5.38
2022-07-25T05:21:12.907Z,5.40
2022-07-25T05:23:42.594Z,5.35
2022-07-25T05:26:11.013Z,5.97
2022-07-25T05:28:39.582Z,5.30
2022-07-25T05:31:08.258Z,5.95
2022-07-25T05:33:36.734Z,6.53
2022-07-25T05:39:42.431Z,6.15
2022-07-25T05:42:12.254Z,5.88
2022-07-25T05:44:40.708Z,5.85
2022-07-25T05:47:11.161Z,6.20
2022-07-25T05:49:40.131Z,5.88
2022-07-25T05:52:12.939Z,6.28
2022-07-25T05:54:41.671Z,5.70
2022-07-25T05:57:11.773Z,5.38
2022-07-25T05:59:40.335Z,5.93
2022-07-25T06:02:09.421Z,5.68
2022-07-25T06:04:38.121Z,5.10
2022-07-25T06:07:06.624Z,5.97
2022-07-25T06:09:36.772Z,5.45
2022-07-25T06:12:05.758Z,5.78
2022-07-25T06:14:35.951Z,5.90
2022-07-25T06:17:04.294Z,5.40
2022-07-25T06:19:32.695Z,5.88
2022-07-25T06:22:01.095Z,5.55
2022-07-25T06:24:29.512Z,5.57
2022-07-25T06:26:58.574Z,5.60
2022-07-25T06:29:26.942Z,5.50
2022-07-25T06:31:56.869Z,5.53
2022-07-25T06:34:28.612Z,5.50
2022-07-25T06:36:57.946Z,5.90
2022-07-25T06:39:28.205Z,5.68
2022-07-25T06:41:57.469Z,5.68
2022-07-25T06:44:25.863Z,5.65
2022-07-25T06:46:54.595Z,6.25
2022-07-25T06:49:24.433Z,5.45
2022-07-25T06:51:52.836Z,5.63
2022-07-25T06:54:21.564Z,5.72
2022-07-25T06:56:49.965Z,6.10
2022-07-25T06:59:18.424Z,6.18
2022-07-25T07:01:51.297Z,6.30
2022-07-25T07:04:20.129Z,5.75
2022-07-25T07:06:49.938Z,5.57
2022-07-25T07:09:18.375Z,5.90
2022-07-25T07:11:46.795Z,5.82
2022-07-25T07:14:15.210Z,6.18
2022-07-25T07:16:43.622Z,6.13
2022-07-25T07:19:12.231Z,6.80
2022-07-25T07:21:40.638Z,6.63
2022-07-25T07:24:23.929Z,6.03
2022-07-25T07:26:53.644Z,5.68
2022-07-25T07:29:22.275Z,6.05
2022-07-25T07:31:50.997Z,5.93
2022-07-25T07:34:20.535Z,6.28
2022-07-25T07:36:49.167Z,7.00
2022-07-25T07:39:18.979Z,6.28
2022-07-25T07:41:47.531Z,6.00
2022-07-25T07:44:15.952Z,6.13
2022-07-25T07:46:44.487Z,5.78
2022-07-25T07:49:13.048Z,5.80
2022-07-25T07:51:41.501Z,6.32
2022-07-25T07:54:27.202Z,5.65
2022-07-25T07:56:56.964Z,6.28
2022-07-25T07:59:25.452Z,5.70
2022-07-25T08:01:53.998Z,5.30
2022-07-25T08:04:22.671Z,6.22
2022-07-25T08:06:51.194Z,5.90
2022-07-25T08:09:19.739Z,6.07
2022-07-25T08:11:48.154Z,6.68
2022-07-25T08:14:17.932Z,6.50
2022-07-25T08:16:46.322Z,5.70
2022-07-25T08:19:14.673Z,6.03
2022-07-25T08:21:43.082Z,5.95
2022-07-25T08:24:15.649Z,5.60
2022-07-25T08:26:44.047Z,5.45
2022-07-25T08:29:19.165Z,6.10
2022-07-25T08:31:49.870Z,6.60
2022-07-25T08:34:19.727Z,6.40
2022-07-25T08:36:48.212Z,5.82
2022-07-25T08:39:16.676Z,6.43
2022-07-25T08:41:45.060Z,6.07
2022-07-25T08:44:17.374Z,6.45
2022-07-25T08:46:46.883Z,6.32
2022-07-25T08:49:16.820Z,6.25
2022-07-25T08:51:46.088Z,6.63
2022-07-25T08:54:14.601Z,5.30
2022-07-25T08:56:44.434Z,5.88
2022-07-25T08:59:12.880Z,5.60
2022-07-25T09:01:41.968Z,5.95
2022-07-25T09:04:11.275Z,5.63
2022-07-25T09:06:50.946Z,5.32
2022-07-25T09:09:19.810Z,5.80
2022-07-25T09:11:48.223Z,5.03
2022-07-25T09:14:16.624Z,5.28
2022-07-25T09:16:46.619Z,5.45
2022-07-25T09:19:17.395Z,5.65
2022-07-25T09:21:59.553Z,5.43
2022-07-25T09:24:28.193Z,5.85
2022-07-25T09:26:58.376Z,5.88
2022-07-25T09:29:30.098Z,5.50
2022-07-25T09:32:00.575Z,5.85
2022-07-25T09:34:37.892Z,5.90
2022-07-25T09:37:09.737Z,5.45
2022-07-25T09:39:45.956Z,5.47
2022-07-25T09:42:20.450Z,6.53
2022-07-25T09:45:00.582Z,6.47
2022-07-25T09:47:29.020Z,5.80
2022-07-25T09:49:58.558Z,6.45
2022-07-25T09:52:28.459Z,5.60
2022-07-25T09:54:56.829Z,6.25
2022-07-25T09:57:26.024Z,6.18
2022-07-25T09:59:56.153Z,5.72
2022-07-25T10:02:40.539Z,5.47
2022-07-25T10:05:16.605Z,5.63
2022-07-25T10:07:48.436Z,5.35
2022-07-25T10:10:28.980Z,6.13
2022-07-25T10:13:06.356Z,6.38
2022-07-25T10:15:47.542Z,5.53
2022-07-25T10:18:17.092Z,6.00
2022-07-25T10:20:46.463Z,5.85
2022-07-25T10:23:27.384Z,6.30
2022-07-25T10:26:09.351Z,6.68
2022-07-25T10:28:43.757Z,6.32
2022-07-25T10:31:22.132Z,5.82
2022-07-25T10:33:53.804Z,5.60
2022-07-25T10:36:23.775Z,6.00
2022-07-25T10:38:59.303Z,6.35
2022-07-25T10:41:29.015Z,5.80
2022-07-25T10:44:01.828Z,5.90
2022-07-25T10:46:32.681Z,5.68
2022-07-25T10:49:04.221Z,5.55
2022-07-25T10:51:39.447Z,6.07
2022-07-25T10:54:18.370Z,5.60
2022-07-25T10:56:55.621Z,6.20
2022-07-25T10:59:29.360Z,5.80
2022-07-25T11:01:57.776Z,6.13
2022-07-25T11:04:26.362Z,6.40
2022-07-25T11:06:54.808Z,6.30
2022-07-25T11:09:27.600Z,5.85
2022-07-25T11:11:57.804Z,6.25
2022-07-25T11:14:31.343Z,6.60
2022-07-25T11:17:11.038Z,5.90
2022-07-25T11:19:39.489Z,5.93
2022-07-25T11:22:08.488Z,5.88
2022-07-25T11:24:40.542Z,6.13
2022-07-25T11:27:12.701Z,5.95
2022-07-25T11:29:42.005Z,6.78
2022-07-25T11:32:12.380Z,6.05
2022-07-25T11:34:43.325Z,6.40
2022-07-25T11:37:14.407Z,5.60
2022-07-25T11:39:46.048Z,6.07
2022-07-25T11:42:16.826Z,6.93
2022-07-25T11:44:48.077Z,6.18
2022-07-25T11:47:28.138Z,6.20
2022-07-25T11:49:58.262Z,5.65
2022-07-25T11:52:29.864Z,6.10
2022-07-25T11:55:01.493Z,6.13
2022-07-25T11:57:31.923Z,5.72
2022-07-25T12:00:01.832Z,6.35
2022-07-25T12:02:32.340Z,5.85
2022-07-25T12:05:03.968Z,6.00
2022-07-25T12:07:41.342Z,5.72
2022-07-25T12:10:13.171Z,6.60
2022-07-25T12:12:49.915Z,6.05
2022-07-25T12:15:20.867Z,6.15
2022-07-25T12:17:50.170Z,5.30
2022-07-25T12:20:20.588Z,6.32
2022-07-25T12:22:52.908Z,6.45
2022-07-25T12:25:27.546Z,6.00
2022-07-25T12:27:59.940Z,6.00
2022-07-25T12:30:29.024Z,5.90
2022-07-25T12:32:58.731Z,5.88
2022-07-25T12:35:28.396Z,6.00
2022-07-25T12:37:56.907Z,6.30
2022-07-25T12:40:26.917Z,6.30
2022-07-25T12:42:57.378Z,5.88
2022-07-25T12:45:26.916Z,6.10
2022-07-25T12:47:55.341Z,6.10
2022-07-25T12:50:26.164Z,6.00
2022-07-25T12:52:55.131Z,5.63
2022-07-25T12:55:23.780Z,5.47
2022-07-25T12:57:53.778Z,5.75
2022-07-25T13:00:24.374Z,5.63
2022-07-25T13:02:55.996Z,5.82
2022-07-25T13:05:25.796Z,5.55
2022-07-25T13:07:54.397Z,5.68
2022-07-25T13:10:22.880Z,5.72
2022-07-25T13:12:52.849Z,6.13
2022-07-25T13:15:23.718Z,5.55
2022-07-25T13:17:52.108Z,5.25
2022-07-25T13:20:20.526Z,6.03
2022-07-25T13:22:48.937Z,5.95
2022-07-25T13:25:17.460Z,5.47
2022-07-25T13:27:45.875Z,5.60
2022-07-25T13:30:16.001Z,5.85
2022-07-25T13:32:44.643Z,5.90
2022-07-25T13:35:15.421Z,4.88
2022-07-25T13:37:47.712Z,5.43
2022-07-25T13:40:16.044Z,5.82
2022-07-25T13:42:44.439Z,5.75
2022-07-25T13:45:13.079Z,5.47
2022-07-25T13:47:42.946Z,5.22
2022-07-25T13:50:11.706Z,5.03
2022-07-25T13:52:40.057Z,5.15
2022-07-25T13:55:10.516Z,5.68
2022-07-25T13:57:38.993Z,5.72
2022-07-25T14:00:09.023Z,5.60
2022-07-25T14:02:37.466Z,5.60
2022-07-25T14:05:08.598Z,5.18
2022-07-25T14:07:37.510Z,5.20
2022-07-25T14:10:08.645Z,5.68
2022-07-25T14:12:37.611Z,5.28
2022-07-25T14:15:09.799Z,5.28
2022-07-25T14:17:38.912Z,5.88
2022-07-25T14:20:10.811Z,5.10
2022-07-25T14:22:39.816Z,5.60
2022-07-25T14:25:09.030Z,5.38
2022-07-25T14:27:37.621Z,5.40
2022-07-25T14:30:09.153Z,5.85
2022-07-25T14:32:37.894Z,5.35
2022-07-25T14:35:09.313Z,5.53
2022-07-25T14:37:37.690Z,5.40
2022-07-25T14:40:11.178Z,5.15
2022-07-25T14:42:40.341Z,4.60
2022-07-25T14:45:09.644Z,5.10
2022-07-25T14:47:39.116Z,5.43
2022-07-25T14:50:09.877Z,5.00
2022-07-25T14:52:38.399Z,5.30
2022-07-25T14:55:08.840Z,5.03
2022-07-25T14:57:37.271Z,5.20
2022-07-25T15:00:07.016Z,5.03
2022-07-25T15:02:35.402Z,5.50
2022-07-25T15:05:03.866Z,5.43
2022-07-25T15:07:33.749Z,5.35
2022-07-25T15:10:02.071Z,5.00
2022-07-25T15:12:30.443Z,5.22
2022-07-25T15:14:58.811Z,5.35
2022-07-25T15:17:27.287Z,5.40
2022-07-25T15:19:55.703Z,4.97
2022-07-25T15:22:24.103Z,5.60
2022-07-25T15:27:42.296Z,5.20
2022-07-25T15:30:11.555Z,5.57
2022-07-25T15:32:40.342Z,5.15
2022-07-25T15:35:09.632Z,5.00
2022-07-25T15:37:38.085Z,5.63
2022-07-25T15:40:09.047Z,5.25
2022-07-25T15:42:39.493Z,5.95
2022-07-25T15:45:31.966Z,4.82
2022-07-25T15:47:57.728Z,5.40
2022-07-25T15:50:26.342Z,5.03
2022-07-25T15:52:54.866Z,5.05
2022-07-25T15:55:24.801Z,5.18
2022-07-25T15:57:53.735Z,5.40
2022-07-25T16:00:27.460Z,5.32
2022-07-25T16:02:58.238Z,5.60
2022-07-25T16:05:26.738Z,5.53
2022-07-25T16:07:55.164Z,5.40
2022-07-25T16:10:25.023Z,5.78
2022-07-25T16:12:53.545Z,5.03
2022-07-25T16:15:22.277Z,5.68
2022-07-25T16:17:51.868Z,5.43
2022-07-25T16:20:20.443Z,5.22
2022-07-25T16:22:49.338Z,5.03
2022-07-25T16:25:17.733Z,5.20
2022-07-25T16:27:47.498Z,6.03
2022-07-25T16:30:16.342Z,5.38
2022-07-25T16:32:44.811Z,5.80
2022-07-25T16:35:13.329Z,5.72
2022-07-25T16:37:42.619Z,5.80
2022-07-25T16:40:11.554Z,5.28
2022-07-25T16:42:40.012Z,5.70
2022-07-25T16:45:11.575Z,5.68
2022-07-25T16:47:42.819Z,5.63
2022-07-25T16:50:11.345Z,5.30
2022-07-25T16:52:39.744Z,5.10
2022-07-25T16:55:08.524Z,5.35
2022-07-25T16:57:39.407Z,7.40
2022-07-25T17:00:11.579Z,6.38
2022-07-25T17:02:39.943Z,5.82
2022-07-25T17:05:08.841Z,5.32
2022-07-25T17:07:39.581Z,5.93
2022-07-25T17:10:09.624Z,5.80
2022-07-25T17:12:38.067Z,5.90
2022-07-25T17:15:07.888Z,5.80
2022-07-25T17:17:37.755Z,6.30
2022-07-25T17:20:07.718Z,5.63
2022-07-25T17:22:36.148Z,5.90
2022-07-25T17:25:04.710Z,6.35
2022-07-25T17:27:33.111Z,6.05
2022-07-25T17:30:01.487Z,6.07
2022-07-25T17:32:30.405Z,5.93
2022-07-25T17:35:00.370Z,6.20
2022-07-25T17:37:28.888Z,6.25
2022-07-25T17:39:57.567Z,5.80
2022-07-25T17:42:25.884Z,6.30
2022-07-25T17:44:54.415Z,5.82
2022-07-25T17:47:23.992Z,6.38
2022-07-25T17:49:52.521Z,6.72
2022-07-25T17:52:22.248Z,6.25
2022-07-25T17:54:50.665Z,5.90
2022-07-25T17:57:19.146Z,6.30
2022-07-25T17:59:47.565Z,6.53
2022-07-25T18:02:16.203Z,6.13
2022-07-25T18:04:45.269Z,6.70
2022-07-25T18:07:13.855Z,6.70
2022-07-25T18:09:43.630Z,6.53
2022-07-25T18:12:12.109Z,6.18
2022-07-25T18:14:40.459Z,5.85
2022-07-25T18:17:08.841Z,5.78
2022-07-25T18:19:37.236Z,6.20
2022-07-25T18:22:06.138Z,6.60
2022-07-25T18:24:34.537Z,6.15
2022-07-25T18:27:05.711Z,6.50
2022-07-25T18:29:37.130Z,6.65
2022-07-25T18:32:06.051Z,6.10
2022-07-25T18:34:34.658Z,6.28
2022-07-25T18:37:03.109Z,6.10
2022-07-25T18:39:31.654Z,5.68
2022-07-25T18:42:00.126Z,6.13
2022-07-25T18:44:30.194Z,6.60
2022-07-25T18:46:59.658Z,5.70
2022-07-25T18:49:28.363Z,6.15
2022-07-25T18:51:56.749Z,6.40
2022-07-25T18:54:25.254Z,5.93
2022-07-25T18:56:53.963Z,6.30
2022-07-25T18:59:24.189Z,5.75
2022-07-25T19:01:55.617Z,5.63
2022-07-25T19:04:24.098Z,5.63
2022-07-25T19:06:52.541Z,5.65
2022-07-25T19:09:20.976Z,5.10
2022-07-25T19:11:49.305Z,5.25
2022-07-25T19:14:17.855Z,6.25
2022-07-25T19:16:46.305Z,5.53
2022-07-25T19:19:16.372Z,6.07
2022-07-25T19:21:46.103Z,5.25
2022-07-25T19:24:14.773Z,6.10
2022-07-25T19:26:43.494Z,5.50
2022-07-25T19:29:18.125Z,5.55
2022-07-25T19:31:46.575Z,5.78
2022-07-25T19:34:16.390Z,6.13
2022-07-25T19:36:46.116Z,6.20
2022-07-25T19:39:15.040Z,5.70
2022-07-25T19:41:46.998Z,6.10
2022-07-25T19:44:15.745Z,6.00
2022-07-25T19:46:44.898Z,6.03
2022-07-25T19:49:15.386Z,5.53
2022-07-25T19:51:43.890Z,5.97
2022-07-25T19:54:13.244Z,5.90
2022-07-25T19:56:41.615Z,5.93
2022-07-25T19:59:10.079Z,6.03
2022-07-25T20:01:39.495Z,5.72
2022-07-25T20:04:09.251Z,5.75
2022-07-25T20:06:39.393Z,5.43
2022-07-25T20:09:08.286Z,5.47
2022-07-25T20:11:37.777Z,5.70
2022-07-25T20:14:06.473Z,5.65
2022-07-25T20:16:36.127Z,5.72
2022-07-25T20:19:04.923Z,5.55
2022-07-25T20:21:34.559Z,5.25
2022-07-25T20:24:04.426Z,5.47
2022-07-25T20:26:33.148Z,5.38
2022-07-25T20:29:01.655Z,5.50
2022-07-25T20:31:30.134Z,5.63
2022-07-25T20:33:58.750Z,5.45
2022-07-25T20:36:27.140Z,5.80
2022-07-25T20:38:55.528Z,5.10
2022-07-25T20:41:26.982Z,5.30
2022-07-25T20:43:57.422Z,5.45
2022-07-25T20:46:25.889Z,5.68
2022-07-25T20:48:54.449Z,5.50
2022-07-25T20:51:22.868Z,5.20
2022-07-25T20:53:53.567Z,5.30
2022-07-25T20:56:22.143Z,5.82
2022-07-25T20:58:52.169Z,5.25
2022-07-25T21:01:20.683Z,5.75
2022-07-25T21:03:49.281Z,5.60
2022-07-25T21:06:17.844Z,5.85
2022-07-25T21:08:46.738Z,5.50
2022-07-25T21:11:15.167Z,5.90
2022-07-25T21:13:43.582Z,5.38
2022-07-25T21:16:13.457Z,5.47
2022-07-25T21:18:44.594Z,5.30
2022-07-25T21:21:13.160Z,6.00
2022-07-25T21:23:42.715Z,5.60
2022-07-25T21:26:11.973Z,5.22
2022-07-25T21:28:40.340Z,5.22
2022-07-25T21:31:08.902Z,5.40
2022-07-25T21:33:38.679Z,5.45
2022-07-25T21:36:07.611Z,5.28
2022-07-25T21:38:37.131Z,5.30
2022-07-25T21:41:10.564Z,5.55
2022-07-25T21:43:39.555Z,5.47
2022-07-25T21:46:08.351Z,5.60
2022-07-25T21:48:56.048Z,4.75
2022-07-25T21:51:24.667Z,5.40
2022-07-25T21:53:53.735Z,5.32
2022-07-25T21:56:22.594Z,5.57
2022-07-25T21:58:51.431Z,5.07
2022-07-25T22:01:21.572Z,5.30
2022-07-25T22:03:53.489Z,5.10
2022-07-25T22:06:22.041Z,4.80
2022-07-25T22:08:50.749Z,5.20
2022-07-25T22:11:38.702Z,5.25
2022-07-25T22:14:08.975Z,5.60
2022-07-25T22:16:37.511Z,5.18
2022-07-25T22:19:07.489Z,5.32
2022-07-25T22:21:36.433Z,5.57
2022-07-25T22:24:05.081Z,5.50
2022-07-25T22:26:33.743Z,5.25
2022-07-25T22:29:02.220Z,5.60
2022-07-25T22:31:30.718Z,5.53
2022-07-25T22:33:59.175Z,5.30
2022-07-25T22:36:28.956Z,5.20
2022-07-25T22:38:57.368Z,5.35
2022-07-25T22:41:25.746Z,5.70
2022-07-25T22:43:58.949Z,5.40
2022-07-25T22:46:28.505Z,4.85
2022-07-25T22:48:57.250Z,5.40
2022-07-25T22:51:26.588Z,5.38
2022-07-25T22:53:56.595Z,4.88
2022-07-25T22:56:25.108Z,5.57
2022-07-25T22:58:53.754Z,5.65
2022-07-25T23:01:22.807Z,5.55
2022-07-25T23:03:51.595Z,5.05
2022-07-25T23:06:21.022Z,4.97
2022-07-25T23:08:50.494Z,5.10
2022-07-25T23:11:20.621Z,5.00
2022-07-25T23:13:49.008Z,5.13
2022-07-25T23:16:17.572Z,5.25
2022-07-25T23:18:46.146Z,5.43
2022-07-25T23:21:14.590Z,5.80
2022-07-25T23:23:43.041Z,5.80
2022-07-25T23:26:11.773Z,5.15
2022-07-25T23:28:41.691Z,5.30
2022-07-25T23:31:10.200Z,5.32
2022-07-25T23:33:38.622Z,5.47
2022-07-25T23:36:07.488Z,5.30
2022-07-25T23:38:35.832Z,5.13
2022-07-25T23:41:04.625Z,5.03
2022-07-25T23:43:56.655Z,4.45
2022-07-25T23:46:27.975Z,5.22
2022-07-25T23:48:58.296Z,4.57
2022-07-25T23:51:27.124Z,4.85
2022-07-25T23:53:55.499Z,4.88
2022-07-25T23:56:24.297Z,4.97
2022-07-25T23:58:53.221Z,5.50
